Time;durP1;ratioP1;P1;durP2;ratioP2;P2;SDS_P1;SDS_P2;PMS_P1;PMS_P2;Temp;Humidity;BMP_temperature;BMP_pressure;BME280_temperature;BME280_humidity;BME280_pressure;Samples;Min_cycle;Max_cycle;Signal;HPM_P1;HPM_P2
2023/04/05 00:00:56;;;;;;;;;4.33;4.33;;;;;19.14;31.43;101837.81;5059136;28;49157;-57
2023/04/05 00:03:22;;;;;;;;;5.50;4.00;;;;;19.14;31.25;101844.84;5078321;28;45258;-58
2023/04/05 00:05:48;;;;;;;;;3.25;3.25;;;;;19.11;31.19;101840.56;5077772;28;46190;-53
2023/04/05 00:08:22;;;;;;;;;4.75;4.00;;;;;19.13;31.51;101843.97;5078044;28;45813;-57
2023/04/05 00:10:48;;;;;;;;;5.50;4.50;;;;;19.13;31.18;101845.75;5059547;28;45383;-58
2023/04/05 00:13:13;;;;;;;;;5.00;4.00;;;;;19.12;31.39;101847.53;5077916;28;45511;-58
2023/04/05 00:15:39;;;;;;;;;4.00;3.00;;;;;19.11;30.98;101842.31;5077856;28;47677;-54
2023/04/05 00:18:05;;;;;;;;;4.00;4.00;;;;;19.11;31.24;101843.19;5077785;28;45256;-57
2023/04/05 00:20:30;;;;;;;;;6.25;4.00;;;;;19.11;31.49;101844.94;5079500;28;45483;-57
2023/04/05 00:22:59;;;;;;;;;4.00;2.00;;;;;19.11;31.17;101848.44;5080096;28;45563;-55
2023/04/05 00:25:25;;;;;;;;;4.25;4.25;;;;;19.11;31.58;101842.31;5080586;28;45267;-56
2023/04/05 00:27:50;;;;;;;;;5.75;4.00;;;;;19.11;31.65;101840.56;5094616;28;46006;-56
2023/04/05 00:30:19;;;;;;;;;3.50;3.50;;;;;19.10;31.43;101841.47;5079669;28;63247;-46
2023/04/05 00:32:51;;;;;;;;;4.00;4.00;;;;;19.08;31.33;101832.78;5079772;28;45492;-48
2023/04/05 00:35:16;;;;;;;;;4.75;3.75;;;;;19.10;31.23;101849.34;5078880;28;46723;-43
2023/04/05 00:37:42;;;;;;;;;4.50;3.25;;;;;19.10;31.66;101838.84;5079136;28;45409;-54
2023/04/05 00:40:08;;;;;;;;;4.25;4.25;;;;;19.09;31.67;101839.75;5078712;28;45501;-50
2023/04/05 00:42:33;;;;;;;;;5.25;4.25;;;;;19.08;31.53;101838.03;5079549;28;45275;-53
2023/04/05 00:44:59;;;;;;;;;5.50;4.25;;;;;19.09;31.33;101834.50;5082839;28;46495;-58
2023/04/05 00:47:25;;;;;;;;;3.00;3.00;;;;;19.08;31.36;101830.16;5091642;28;44707;-53
2023/04/05 00:49:51;;;;;;;;;2.25;2.00;;;;;19.09;31.20;101839.75;5090913;28;45153;-57
2023/04/05 00:52:16;;;;;;;;;5.75;5.00;;;;;19.08;31.61;101827.53;5090923;28;45542;-57
2023/04/05 00:54:43;;;;;;;;;5.75;4.00;;;;;19.08;31.38;101830.16;5081904;28;46261;-52
2023/04/05 00:57:08;;;;;;;;;3.00;3.00;;;;;19.08;31.34;101827.53;5079757;28;45757;-45
2023/04/05 00:59:34;;;;;;;;;4.50;4.00;;;;;19.07;31.54;101831.06;5079157;28;45236;-47
2023/04/05 01:02:16;;;;;;;;;6.00;4.00;;;;;19.07;31.34;101825.81;5079010;28;45331;-48
2023/04/05 01:04:48;;;;;;;;;5.75;4.00;;;;;19.08;31.66;101830.16;5083351;28;46197;-54
2023/04/05 01:07:26;;;;;;;;;4.00;4.00;;;;;19.07;31.79;101830.22;5099221;28;46020;-56
2023/04/05 01:09:56;;;;;;;;;2.00;2.00;;;;;19.07;31.55;101824.97;5078840;28;45428;-57
2023/04/05 01:12:26;;;;;;;;;4.25;4.00;;;;;19.06;31.20;101823.22;5078314;28;45222;-56
2023/04/05 01:14:53;;;;;;;;;5.00;3.50;;;;;19.07;31.73;101820.53;5078052;28;45417;-57
2023/04/05 01:17:21;;;;;;;;;5.25;4.75;;;;;19.06;31.67;101818.81;5062003;28;45609;-57
2023/04/05 01:19:57;;;;;;;;;5.00;4.00;;;;;19.04;31.28;101809.28;5083647;28;45216;-51
2023/04/05 01:22:41;;;;;;;;;2.75;2.75;;;;;19.05;31.55;101808.38;5088683;28;45263;-55
2023/04/05 01:25:37;;;;;;;;;3.50;3.00;;;;;19.05;31.72;101806.59;5079390;28;47891;-52
2023/04/05 01:28:23;;;;;;;;;6.00;2.75;;;;;19.05;31.34;101806.59;5079557;28;45252;-46
2023/04/05 01:30:52;;;;;;;;;6.75;4.00;;;;;19.04;31.42;101798.78;5084705;28;45235;-55
2023/04/05 01:33:48;;;;;;;;;7.75;4.25;;;;;19.03;31.72;101790.03;5084943;28;45512;-57
2023/04/05 01:36:26;;;;;;;;;4.00;4.00;;;;;19.04;31.86;101788.25;5094041;28;46450;-48
2023/04/05 01:38:53;;;;;;;;;3.25;2.00;;;;;19.02;31.30;101785.66;5080671;28;45063;-52
2023/04/05 01:41:18;;;;;;;;;4.00;3.00;;;;;19.03;31.72;101797.91;5098594;28;44705;-55
2023/04/05 01:43:43;;;;;;;;;3.00;3.00;;;;;19.03;31.64;101795.28;5093454;28;44904;-57
2023/04/05 01:46:09;;;;;;;;;4.00;4.00;;;;;19.04;31.65;101783.00;5091003;28;67775;-53
2023/04/05 01:48:34;;;;;;;;;5.00;4.00;;;;;19.03;31.75;101786.53;5094326;28;45361;-57
2023/04/05 01:51:00;;;;;;;;;4.50;4.50;;;;;19.02;31.79;101780.41;5079159;28;45393;-56
2023/04/05 01:53:25;;;;;;;;;3.25;3.25;;;;;19.01;31.42;101783.97;5062102;28;45566;-53
2023/04/05 01:55:50;;;;;;;;;2.00;2.00;;;;;19.02;31.49;101788.31;5060644;28;46188;-54
2023/04/05 01:58:16;;;;;;;;;7.00;4.00;;;;;19.02;31.74;101782.19;5095504;28;68856;-54
2023/04/05 02:00:41;;;;;;;;;4.25;4.00;;;;;19.01;31.51;101783.97;5079260;28;45260;-57
2023/04/05 02:03:06;;;;;;;;;4.25;3.00;;;;;19.01;31.95;101789.25;5079292;28;45373;-55
2023/04/05 02:05:31;;;;;;;;;3.00;3.00;;;;;19.01;31.22;101778.72;5077704;28;45433;-55
2023/04/05 02:07:57;;;;;;;;;2.25;2.25;;;;;19.02;31.41;101774.31;5077274;27;45385;-50
2023/04/05 02:10:23;;;;;;;;;4.00;4.00;;;;;19.01;31.76;101773.47;5079543;28;52019;-44
2023/04/05 02:12:48;;;;;;;;;3.25;3.00;;;;;19.00;31.81;101762.09;5081158;28;45457;-57
2023/04/05 02:15:14;;;;;;;;;4.00;4.00;;;;;19.01;31.17;101762.97;5080104;28;46229;-51
2023/04/05 02:17:44;;;;;;;;;4.00;4.00;;;;;19.00;31.77;101763.88;5080215;28;45341;-56
2023/04/05 02:20:11;;;;;;;;;4.00;4.00;;;;;19.01;31.76;101765.59;5080764;28;45432;-49
2023/04/05 02:22:36;;;;;;;;;3.75;3.50;;;;;18.99;31.60;101760.38;5081016;28;45222;-56
2023/04/05 02:25:08;;;;;;;;;6.25;3.25;;;;;18.99;31.47;101759.53;5080397;28;46420;-46
2023/04/05 02:27:34;;;;;;;;;4.50;3.50;;;;;18.99;31.69;101749.00;5079893;28;45330;-57
2023/04/05 02:29:59;;;;;;;;;2.75;2.75;;;;;18.98;31.69;101748.13;5079917;28;45318;-56
2023/04/05 02:32:25;;;;;;;;;4.00;3.00;;;;;18.99;31.77;101744.59;5079614;28;45675;-57
2023/04/05 02:34:51;;;;;;;;;4.00;3.00;;;;;18.97;31.52;101742.94;5078967;28;46129;-57
2023/04/05 02:37:17;;;;;;;;;6.50;3.75;;;;;18.98;31.76;101757.81;5078941;28;45263;-57
2023/04/05 02:39:42;;;;;;;;;2.50;2.50;;;;;18.97;31.58;101738.53;5079768;28;45268;-57
2023/04/05 02:42:08;;;;;;;;;3.67;3.00;;;;;18.97;31.83;101742.94;5067458;28;59192;-57
2023/04/05 02:44:33;;;;;;;;;4.00;3.00;;;;;18.97;31.99;101741.16;5091455;28;52801;-57
2023/04/05 02:46:58;;;;;;;;;5.50;4.50;;;;;18.96;31.84;101734.19;5090712;28;45255;-56
2023/04/05 02:49:23;;;;;;;;;3.00;3.00;;;;;18.96;31.39;101735.97;5094385;28;49309;-45
2023/04/05 02:51:49;;;;;;;;;5.75;4.00;;;;;18.97;31.54;101735.06;5096188;28;45695;-57
2023/04/05 02:54:15;;;;;;;;;5.00;3.50;;;;;18.95;31.93;101743.00;5061184;28;47105;-46
2023/04/05 02:56:41;;;;;;;;;3.50;3.50;;;;;18.96;31.66;101736.81;5079290;28;45877;-45
2023/04/05 02:59:07;;;;;;;;;3.00;3.00;;;;;18.96;31.83;101730.72;5095943;28;45342;-50
2023/04/05 03:01:35;;;;;;;;;3.00;3.00;;;;;18.95;31.38;101736.88;5095455;28;45259;-57
2023/04/05 03:04:00;;;;;;;;;4.00;3.50;;;;;18.95;31.76;101732.50;5083136;28;46563;-53
2023/04/05 03:06:26;;;;;;;;;3.25;3.25;;;;;18.94;31.71;101732.53;5091031;28;45354;-57
2023/04/05 03:08:52;;;;;;;;;4.50;3.00;;;;;18.93;31.44;101729.06;5079098;28;45433;-54
2023/04/05 03:11:18;;;;;;;;;5.00;3.25;;;;;18.94;31.60;101724.66;5078736;28;45683;-57
2023/04/05 03:13:43;;;;;;;;;4.00;3.00;;;;;18.94;31.45;101722.03;5078354;28;45374;-57
2023/04/05 03:16:09;;;;;;;;;3.00;3.00;;;;;18.93;31.45;101734.31;5078653;28;45315;-49
2023/04/05 03:18:35;;;;;;;;;4.25;3.75;;;;;18.92;31.84;101721.19;5078459;28;45374;-53
2023/04/05 03:21:00;;;;;;;;;4.00;3.00;;;;;18.93;31.63;101728.16;5078558;28;45314;-50
2023/04/05 03:23:29;;;;;;;;;3.75;3.75;;;;;18.93;31.51;101728.16;5077266;28;69330;-56
2023/04/05 03:25:57;;;;;;;;;3.75;3.75;;;;;18.93;31.49;101738.66;5078024;28;45798;-54
2023/04/05 03:28:24;;;;;;;;;5.25;3.50;;;;;18.92;31.84;101727.31;5060039;28;45381;-55
2023/04/05 03:30:50;;;;;;;;;3.00;3.00;;;;;18.94;31.51;101729.91;5078384;28;45419;-51
2023/04/05 03:33:16;;;;;;;;;4.00;4.00;;;;;18.92;31.54;101732.56;5078094;28;46282;-56
2023/04/05 03:35:41;;;;;;;;;4.00;3.50;;;;;18.92;31.45;101732.56;5078335;28;45302;-53
2023/04/05 03:38:06;;;;;;;;;1.00;1.00;;;;;18.92;31.84;101729.94;5078230;28;45411;-55
2023/04/05 03:40:32;;;;;;;;;5.33;5.33;;;;;18.92;31.50;101737.81;5078401;28;45540;-58
2023/04/05 03:42:57;;;;;;;;;7.50;4.75;;;;;18.92;31.95;101743.06;5083161;28;46877;-52
2023/04/05 03:45:23;;;;;;;;;7.00;4.25;;;;;18.92;31.82;101739.56;5095220;28;45157;-46
2023/04/05 03:47:48;;;;;;;;;5.50;4.00;;;;;18.91;31.68;101740.47;5079517;28;45430;-44
2023/04/05 03:50:14;;;;;;;;;8.50;4.75;;;;;18.91;31.53;101740.47;5078422;28;45463;-45
2023/04/05 03:52:39;;;;;;;;;3.25;3.25;;;;;18.91;31.62;101735.22;5078198;28;46273;-54
2023/04/05 03:55:05;;;;;;;;;5.25;5.25;;;;;18.90;31.89;101731.75;5078039;28;45329;-51
2023/04/05 03:57:31;;;;;;;;;4.25;4.25;;;;;18.91;31.88;101735.22;5078305;28;45459;-43
2023/04/05 03:59:56;;;;;;;;;3.25;3.25;;;;;18.90;31.65;101734.38;5078388;28;45424;-52
2023/04/05 04:02:21;;;;;;;;;5.75;3.75;;;;;18.89;31.61;101737.91;5096100;28;45821;-54
2023/04/05 04:04:46;;;;;;;;;4.25;4.25;;;;;18.90;31.69;101741.41;5103016;27;70112;-47
2023/04/05 04:07:13;;;;;;;;;4.00;4.00;;;;;18.90;31.64;101744.06;5082705;28;45335;-56
2023/04/05 04:09:38;;;;;;;;;3.00;3.00;;;;;18.89;31.89;101737.06;5078588;28;45619;-57
2023/04/05 04:12:03;;;;;;;;;5.75;5.00;;;;;18.89;31.52;101731.81;5078168;28;45786;-53
2023/04/05 04:14:29;;;;;;;;;7.50;6.25;;;;;18.89;31.85;101732.66;5078571;28;45456;-58
2023/04/05 04:16:54;;;;;;;;;5.67;3.67;;;;;18.89;31.95;101739.69;5077121;28;57251;-57
2023/04/05 04:19:20;;;;;;;;;6.00;4.25;;;;;18.89;32.02;101731.81;5078528;28;45603;-53
2023/04/05 04:21:50;;;;;;;;;5.00;5.00;;;;;18.88;31.74;101717.81;5080020;28;46100;-46
2023/04/05 04:24:17;;;;;;;;;5.00;5.00;;;;;18.88;31.59;101719.59;5095280;28;45799;-46
2023/04/05 04:26:43;;;;;;;;;7.00;4.00;;;;;18.87;31.75;101723.13;5079880;28;45433;-57
2023/04/05 04:29:11;;;;;;;;;8.00;7.00;;;;;18.85;31.51;101720.56;5080941;28;45555;-56
2023/04/05 04:31:37;;;;;;;;;6.50;5.00;;;;;18.84;31.30;101730.19;5078856;28;46979;-57
2023/04/05 04:34:04;;;;;;;;;6.50;6.50;;;;;18.84;31.81;101717.06;5078060;28;45265;-56
2023/04/05 04:36:38;;;;;;;;;5.25;4.25;;;;;18.85;31.75;101720.56;5078793;28;45266;-57
2023/04/05 04:39:06;;;;;;;;;4.75;4.25;;;;;18.85;31.47;101737.16;5094790;28;45439;-56
2023/04/05 04:41:32;;;;;;;;;4.00;4.00;;;;;18.84;31.63;101735.44;5097178;28;46328;-55
2023/04/05 04:44:01;;;;;;;;;4.75;4.75;;;;;18.85;31.43;101724.03;5082685;28;45926;-56
2023/04/05 04:46:29;;;;;;;;;5.50;4.25;;;;;18.85;31.82;101726.66;5083309;28;45365;-46
2023/04/05 04:48:56;;;;;;;;;8.50;7.00;;;;;18.85;31.73;101720.56;5083821;28;45357;-45
2023/04/05 04:51:22;;;;;;;;;11.00;10.00;;;;;18.85;31.74;101721.41;5086669;28;45210;-50
2023/04/05 04:53:47;;;;;;;;;12.50;11.50;;;;;18.85;31.61;101726.66;5101791;27;44795;-55
2023/04/05 04:56:12;;;;;;;;;9.25;7.00;;;;;18.85;31.55;101720.56;5081827;28;45313;-51
2023/04/05 04:58:38;;;;;;;;;9.75;7.00;;;;;18.87;31.89;101720.50;5077159;28;45476;-50
2023/04/05 05:01:10;;;;;;;;;15.25;10.50;;;;;18.88;31.48;101716.97;5076548;28;46105;-44
2023/04/05 05:03:37;;;;;;;;;12.75;11.75;;;;;18.89;32.19;101721.31;5076590;28;45243;-48
2023/04/05 05:06:03;;;;;;;;;8.75;6.50;;;;;18.88;31.92;101719.59;5076778;28;45361;-45
2023/04/05 05:08:29;;;;;;;;;7.00;7.00;;;;;18.87;33.03;101716.09;5076985;28;45609;-54
2023/04/05 05:10:54;;;;;;;;;7.25;7.25;;;;;18.88;33.57;101716.97;5076351;28;47260;-46
2023/04/05 05:13:20;;;;;;;;;9.00;6.75;;;;;18.88;34.13;101714.34;5076416;28;45283;-49
2023/04/05 05:15:45;;;;;;;;;8.00;7.00;;;;;18.88;34.86;101714.34;5076325;28;57772;-58
2023/04/05 05:18:11;;;;;;;;;8.25;6.00;;;;;18.89;34.25;101716.06;5058452;28;45652;-52
2023/04/05 05:20:36;;;;;;;;;8.75;8.00;;;;;18.87;34.53;101713.47;5058120;28;46070;-47
2023/04/05 05:23:04;;;;;;;;;6.00;6.00;;;;;18.85;34.45;101705.66;5058313;28;45355;-51
2023/04/05 05:25:29;;;;;;;;;7.75;7.00;;;;;18.87;34.64;101707.38;5076613;28;45330;-49
2023/04/05 05:27:55;;;;;;;;;11.75;6.00;;;;;18.85;34.79;101708.28;5076864;28;45339;-48
2023/04/05 05:30:20;;;;;;;;;5.25;5.00;;;;;18.82;34.37;101715.41;5084450;28;53737;-48
2023/04/05 05:32:46;;;;;;;;;7.33;7.33;;;;;18.82;34.67;101718.03;5101926;28;45318;-57
2023/04/05 05:35:11;;;;;;;;;7.00;5.00;;;;;18.81;34.28;101718.94;5076829;28;45221;-57
2023/04/05 05:37:36;;;;;;;;;6.25;6.00;;;;;18.81;34.35;101711.06;5076669;28;45152;-56
2023/04/05 05:40:03;;;;;;;;;5.75;5.50;;;;;18.81;34.55;101713.69;5080940;28;46370;-50
2023/04/05 05:42:31;;;;;;;;;12.00;9.50;;;;;18.81;34.36;101711.06;5092948;28;45892;-56
2023/04/05 05:44:57;;;;;;;;;7.25;5.00;;;;;18.81;34.29;101709.28;5078848;28;45508;-53
2023/04/05 05:47:22;;;;;;;;;5.75;4.75;;;;;18.82;34.35;101710.16;5080136;28;45521;-55
2023/04/05 05:49:48;;;;;;;;;7.75;7.00;;;;;18.80;34.58;101723.31;5079847;28;46888;-54
2023/04/05 05:52:13;;;;;;;;;5.25;5.25;;;;;18.83;34.77;101711.88;5079562;28;45741;-53
2023/04/05 05:54:39;;;;;;;;;9.75;6.25;;;;;18.82;34.82;101718.03;5079583;28;45924;-51
2023/04/05 05:57:04;;;;;;;;;8.33;5.00;;;;;18.81;34.53;101711.91;5079171;28;55443;-53
2023/04/05 05:59:30;;;;;;;;;6.00;6.00;;;;;18.83;34.25;101707.47;5079296;28;46895;-53
2023/04/05 06:01:55;;;;;;;;;5.25;5.25;;;;;18.83;34.41;101710.09;5079451;28;45456;-51
2023/04/05 06:04:20;;;;;;;;;6.50;4.75;;;;;18.85;34.88;101704.81;5079905;28;45333;-51
2023/04/05 06:06:46;;;;;;;;;5.00;4.00;;;;;18.84;34.80;101717.06;5079894;28;45375;-50
2023/04/05 06:09:15;;;;;;;;;5.50;5.00;;;;;18.84;34.57;101719.69;5079411;28;45361;-51
2023/04/05 06:11:40;;;;;;;;;5.75;3.25;;;;;18.83;34.72;101711.88;5080090;28;45346;-53
2023/04/05 06:14:06;;;;;;;;;6.50;5.50;;;;;18.84;34.70;101724.94;5082225;28;45265;-56
2023/04/05 06:16:34;;;;;;;;;7.75;6.25;;;;;18.85;34.42;101733.69;5084024;28;45599;-48
2023/04/05 06:18:59;;;;;;;;;5.75;5.00;;;;;18.85;34.49;101726.66;5083276;28;46248;-52
2023/04/05 06:21:25;;;;;;;;;6.00;6.00;;;;;18.85;34.73;101721.41;5083537;28;45307;-49
2023/04/05 06:23:50;;;;;;;;;6.25;5.00;;;;;18.84;34.74;101732.81;5085054;28;45286;-56
2023/04/05 06:26:21;;;;;;;;;5.50;5.50;;;;;18.86;34.84;101727.50;5085497;28;45231;-57
2023/04/05 06:28:48;;;;;;;;;5.00;5.00;;;;;18.87;34.83;101728.38;5079487;28;46350;-56
2023/04/05 06:31:15;;;;;;;;;5.25;5.25;;;;;18.86;34.56;101740.66;5092522;27;45381;-56
2023/04/05 06:33:41;;;;;;;;;4.00;4.00;;;;;18.87;34.74;101738.88;5101833;28;44812;-52
2023/04/05 06:36:06;;;;;;;;;5.75;4.00;;;;;18.87;34.85;101744.16;5102540;28;44844;-54
2023/04/05 06:38:32;;;;;;;;;4.75;4.50;;;;;18.87;34.90;101734.47;5084600;28;45989;-44
2023/04/05 06:40:57;;;;;;;;;6.00;4.00;;;;;18.85;34.62;101742.44;5079053;28;55552;-41
2023/04/05 06:43:22;;;;;;;;;3.67;3.67;;;;;18.88;34.67;101724.84;5080402;28;52680;-43
2023/04/05 06:45:47;;;;;;;;;7.00;4.00;;;;;18.87;34.91;101739.72;5104885;28;45459;-55
2023/04/05 06:48:13;;;;;;;;;4.00;4.00;;;;;18.89;34.58;101744.97;5090239;28;46507;-55
2023/04/05 06:50:39;;;;;;;;;5.67;4.67;;;;;18.89;34.63;101740.53;5078985;28;72417;-55
2023/04/05 06:53:05;;;;;;;;;5.50;5.00;;;;;18.88;34.72;101740.59;5061038;28;45427;-56
2023/04/05 06:55:31;;;;;;;;;5.75;4.25;;;;;18.89;34.64;101751.06;5079624;28;45349;-53
2023/04/05 06:57:57;;;;;;;;;5.00;4.00;;;;;18.90;34.54;101738.78;5082196;28;45421;-52
2023/04/05 07:00:22;;;;;;;;;6.50;6.00;;;;;18.89;34.52;101747.59;5082012;28;45252;-51
2023/04/05 07:02:48;;;;;;;;;6.00;5.00;;;;;18.90;35.02;101755.41;5085243;28;45265;-57
2023/04/05 07:05:13;;;;;;;;;4.25;4.25;;;;;18.92;35.02;101750.09;5080344;28;45263;-56
2023/04/05 07:07:40;;;;;;;;;6.00;4.33;;;;;18.93;34.68;101752.72;5084961;28;62638;-53
2023/04/05 07:10:06;;;;;;;;;6.75;4.25;;;;;18.91;34.49;101753.63;5078899;28;45221;-55
2023/04/05 07:12:31;;;;;;;;;4.50;4.50;;;;;18.94;34.74;101748.31;5080487;28;45735;-55
2023/04/05 07:14:58;;;;;;;;;6.25;3.50;;;;;18.93;34.86;101755.34;5085755;28;45309;-46
2023/04/05 07:17:24;;;;;;;;;6.50;4.75;;;;;18.94;34.64;101757.06;5087878;28;45341;-48
2023/04/05 07:19:49;;;;;;;;;6.50;5.00;;;;;18.94;34.90;101758.81;5087376;28;45342;-56
2023/04/05 07:22:15;;;;;;;;;4.50;4.00;;;;;18.94;34.95;101756.19;5083840;28;45459;-53
2023/04/05 07:24:40;;;;;;;;;5.50;4.00;;;;;18.94;34.59;101759.69;5079418;28;45436;-50
2023/04/05 07:27:06;;;;;;;;;5.00;5.00;;;;;18.94;34.48;101756.19;5086438;28;46225;-56
2023/04/05 07:29:31;;;;;;;;;4.00;4.00;;;;;18.95;34.60;101763.16;5079797;28;45323;-55
2023/04/05 07:31:56;;;;;;;;;5.00;5.00;;;;;18.96;34.56;101759.63;5079072;28;45382;-52
2023/04/05 07:34:22;;;;;;;;;6.00;5.00;;;;;18.96;34.85;101759.63;5077743;28;53884;-51
2023/04/05 07:36:49;;;;;;;;;0.25;0.25;;;;;18.96;34.43;101759.63;5077264;28;60509;-47
2023/04/05 07:39:14;;;;;;;;;6.50;5.25;;;;;18.96;34.73;101763.09;5078503;28;45786;-53
2023/04/05 07:41:40;;;;;;;;;1.00;1.00;;;;;18.97;34.54;101761.34;5078578;28;45331;-48
2023/04/05 07:44:05;;;;;;;;;4.25;4.25;;;;;18.97;34.58;101762.19;5077682;28;51873;-51
2023/04/05 07:46:30;;;;;;;;;4.00;3.00;;;;;18.98;34.47;101763.91;5077710;28;46078;-47
2023/04/05 07:48:57;;;;;;;;;5.67;4.67;;;;;18.98;34.40;101755.19;5077458;28;61724;-49
2023/04/05 07:51:22;;;;;;;;;3.25;3.00;;;;;18.98;34.41;101761.28;5102774;28;44686;-50
2023/04/05 07:53:48;;;;;;;;;4.67;4.67;;;;;18.97;34.74;101758.72;5093556;28;45633;-47
2023/04/05 07:56:13;;;;;;;;;6.00;4.00;;;;;18.98;34.26;101756.03;5078466;28;46209;-47
2023/04/05 07:58:40;;;;;;;;;6.25;5.00;;;;;18.99;34.74;101749.00;5079496;28;45333;-47
2023/04/05 08:01:06;;;;;;;;;5.00;5.00;;;;;18.99;34.38;101734.09;5079795;28;45462;-49
2023/04/05 08:03:33;;;;;;;;;3.50;3.50;;;;;18.98;34.47;101736.78;5086181;28;45382;-44
2023/04/05 08:06:08;;;;;;;;;5.25;5.00;;;;;19.01;34.60;101734.06;5078311;28;46308;-44
2023/04/05 08:08:34;;;;;;;;;6.00;4.75;;;;;19.00;34.68;101738.44;5078448;28;45453;-44
2023/04/05 08:11:02;;;;;;;;;4.00;4.00;;;;;19.03;34.70;101740.09;5100219;28;45340;-53
2023/04/05 08:13:28;;;;;;;;;5.00;5.00;;;;;19.03;34.40;101739.25;5090980;28;45445;-50
2023/04/05 08:15:55;;;;;;;;;5.00;4.25;;;;;19.03;34.80;101739.25;5078980;28;45516;-53
2023/04/05 08:18:20;;;;;;;;;2.25;2.25;;;;;19.04;34.67;101741.81;5096629;28;45475;-52
2023/04/05 08:20:50;;;;;;;;;4.50;4.50;;;;;19.04;34.66;101740.97;5080590;28;45333;-56
2023/04/05 08:23:15;;;;;;;;;6.25;3.00;;;;;19.04;34.46;101746.22;5078112;28;45221;-56
2023/04/05 08:25:40;;;;;;;;;5.00;5.00;;;;;19.05;34.39;101747.94;5058949;28;60017;-54
2023/04/05 08:28:06;;;;;;;;;4.25;4.25;;;;;19.05;34.30;101751.41;5080226;28;45235;-54
2023/04/05 08:30:31;;;;;;;;;3.50;3.50;;;;;19.07;34.70;101756.66;5103173;28;44615;-44
2023/04/05 08:32:57;;;;;;;;;6.00;4.00;;;;;19.08;34.17;101751.31;5101445;28;44907;-53
2023/04/05 08:35:22;;;;;;;;;4.00;4.00;;;;;19.09;34.46;101753.03;5085028;28;61874;-40
2023/04/05 08:37:47;;;;;;;;;4.67;4.67;;;;;19.10;34.21;101744.25;5081736;28;58997;-46
2023/04/05 08:40:13;;;;;;;;;6.00;4.00;;;;;19.12;34.27;101746.81;5094043;28;56487;-54
2023/04/05 08:42:49;;;;;;;;;4.00;4.00;;;;;19.13;34.23;101746.75;5099372;28;45475;-51
2023/04/05 08:45:18;;;;;;;;;7.50;5.00;;;;;19.15;34.71;101754.59;5089486;28;45330;-56
2023/04/05 08:47:45;;;;;;;;;5.25;4.25;;;;;19.16;34.29;101756.31;5075907;28;45258;-50
2023/04/05 08:50:12;;;;;;;;;4.00;3.50;;;;;19.16;34.34;101751.91;5077083;28;45305;-56
2023/04/05 08:52:41;;;;;;;;;4.25;4.25;;;;;19.18;34.52;101751.00;5077323;28;45322;-53
2023/04/05 08:55:07;;;;;;;;;4.00;3.50;;;;;19.19;34.51;101750.09;5077115;28;46395;-58
2023/04/05 08:57:37;;;;;;;;;4.75;4.75;;;;;19.20;34.74;101746.56;5076972;28;45346;-48
2023/04/05 09:00:03;;;;;;;;;10.25;5.00;;;;;19.19;34.62;101755.34;5077171;28;45315;-47
2023/04/05 09:02:29;;;;;;;;;3.00;3.00;;;;;19.19;34.29;101750.09;5077597;28;45501;-54
2023/04/05 09:04:55;;;;;;;;;6.00;5.00;;;;;19.21;34.20;101756.16;5077457;28;46884;-56
2023/04/05 09:07:21;;;;;;;;;5.25;4.75;;;;;19.21;34.41;101749.13;5095525;28;46690;-57
2023/04/05 09:09:51;;;;;;;;;7.75;6.50;;;;;19.21;33.80;101748.28;5071859;28;45433;-57
2023/04/05 09:12:19;;;;;;;;;4.25;4.25;;;;;19.22;33.81;101747.38;5077225;28;45390;-56
2023/04/05 09:14:47;;;;;;;;;5.75;5.00;;;;;19.23;33.90;101744.66;5058475;28;46990;-48
2023/04/05 09:17:16;;;;;;;;;5.00;5.00;;;;;19.26;33.62;101756.84;5076877;28;45374;-56
2023/04/05 09:19:42;;;;;;;;;4.00;4.00;;;;;19.28;34.07;101747.13;5085190;28;45393;-50
2023/04/05 09:22:09;;;;;;;;;4.25;4.25;;;;;19.34;33.77;101752.19;5098245;28;44916;-55
2023/04/05 09:24:35;;;;;;;;;6.50;5.00;;;;;19.41;33.92;101752.78;5087344;28;46341;-50
2023/04/05 09:27:05;;;;;;;;;4.00;4.00;;;;;19.50;34.24;101746.34;5083669;28;46030;-54
2023/04/05 09:29:30;;;;;;;;;4.50;4.50;;;;;19.58;33.82;101752.19;5083686;28;45242;-55
2023/04/05 09:31:56;;;;;;;;;4.25;3.25;;;;;19.67;33.68;101754.50;5083609;28;45534;-54
2023/04/05 09:34:23;;;;;;;;;4.25;4.25;;;;;19.75;33.83;101748.94;5083625;28;45551;-58
2023/04/05 09:36:48;;;;;;;;;4.50;4.00;;;;;19.84;34.17;101753.88;5090989;28;45312;-52
2023/04/05 09:39:19;;;;;;;;;6.25;4.00;;;;;19.93;33.95;101750.03;5089067;28;45364;-48
2023/04/05 09:42:03;;;;;;;;;4.00;3.00;;;;;20.01;33.93;101745.34;5083878;28;45454;-45
2023/04/05 09:44:50;;;;;;;;;7.50;4.75;;;;;20.09;33.52;101745.03;5082884;28;46555;-48
2023/04/05 09:47:17;;;;;;;;;5.00;4.00;;;;;20.16;33.56;101740.41;5084028;28;45926;-53
2023/04/05 09:49:42;;;;;;;;;2.50;2.50;;;;;20.22;33.48;101742.81;5084080;28;45398;-48
2023/04/05 09:52:25;;;;;;;;;3.50;3.50;;;;;20.31;33.73;101744.19;5084475;28;45425;-52
2023/04/05 09:54:55;;;;;;;;;5.25;3.75;;;;;20.34;33.47;101742.28;5092939;28;46285;-43
2023/04/05 09:57:21;;;;;;;;;4.25;4.00;;;;;20.41;33.56;101731.53;5092692;28;45354;-44
2023/04/05 09:59:47;;;;;;;;;3.00;3.00;;;;;20.47;33.38;101736.53;5096227;28;45412;-50
2023/04/05 10:02:12;;;;;;;;;3.50;3.50;;;;;20.52;33.58;101730.16;5107580;28;45188;-51
2023/04/05 10:04:43;;;;;;;;;3.25;3.25;;;;;20.58;33.06;101736.94;5084651;28;45477;-49
2023/04/05 10:07:12;;;;;;;;;1.00;1.00;;;;;20.60;33.24;101723.75;5083437;28;45381;-51
2023/04/05 10:09:39;;;;;;;;;5.00;5.00;;;;;20.67;32.73;101738.34;5083469;28;45343;-50
2023/04/05 10:12:06;;;;;;;;;6.00;5.25;;;;;20.73;32.98;101730.19;5084093;28;45249;-57
2023/04/05 10:14:31;;;;;;;;;3.50;2.25;;;;;20.79;32.76;101729.97;5083228;28;46210;-57
2023/04/05 10:17:13;;;;;;;;;4.00;3.00;;;;;20.87;32.67;101723.50;5082867;28;45247;-51
2023/04/05 10:20:06;;;;;;;;;4.75;3.75;;;;;20.93;32.87;101729.38;5081922;28;45390;-55
2023/04/05 10:22:36;;;;;;;;;3.00;3.00;;;;;20.97;32.62;101725.69;5083498;28;45479;-55
2023/04/05 10:25:15;;;;;;;;;3.00;3.00;;;;;21.03;32.83;101723.69;5083394;28;46815;-59
2023/04/05 10:27:51;;;;;;;;;2.00;2.00;;;;;21.06;32.90;101716.50;5104657;28;45267;-55
2023/04/05 10:30:17;;;;;;;;;2.50;2.50;;;;;21.12;32.66;101713.63;5104077;28;45314;-44
2023/04/05 10:33:28;;;;;;;;;5.75;3.00;;;;;21.16;32.58;101716.97;5104671;28;45129;-50
2023/04/05 10:36:03;;;;;;;;;3.00;3.00;;;;;21.21;32.83;101711.50;5072773;28;46701;-58
2023/04/05 10:38:41;;;;;;;;;3.00;3.00;;;;;21.25;32.48;101706.03;5080516;28;45455;-58
2023/04/05 10:41:11;;;;;;;;;3.75;3.00;;;;;21.28;32.86;101702.38;5092985;28;45454;-59
2023/04/05 10:43:42;;;;;;;;;2.25;2.25;;;;;21.33;32.71;101695.13;5091554;28;45290;-52
2023/04/05 10:46:10;;;;;;;;;4.00;4.00;;;;;21.36;32.38;101696.78;5078977;28;47090;-51
2023/04/05 10:49:06;;;;;;;;;4.25;3.00;;;;;21.40;32.52;101696.56;5078642;28;45457;-59
2023/04/05 10:51:33;;;;;;;;;3.00;3.00;;;;;21.44;32.22;101697.31;5078159;28;45402;-56
2023/04/05 10:53:59;;;;;;;;;3.00;3.00;;;;;21.46;32.20;101690.16;5079136;28;45532;-60
2023/04/05 10:56:25;;;;;;;;;1.00;1.00;;;;;21.49;32.47;101687.38;5082335;28;45376;-54
2023/04/05 10:58:52;;;;;;;;;5.50;3.75;;;;;21.53;32.43;101691.59;5098965;28;45875;-56
2023/04/05 11:01:19;;;;;;;;;3.00;3.00;;;;;21.55;32.12;101684.44;5079101;28;45238;-51
2023/04/05 11:03:50;;;;;;;;;3.50;3.50;;;;;21.59;32.10;101686.06;5078443;28;45338;-55
2023/04/05 11:06:20;;;;;;;;;3.75;3.00;;;;;21.62;32.11;101685.06;5078214;28;46185;-58
2023/04/05 11:08:47;;;;;;;;;3.75;3.75;;;;;21.64;31.72;101687.63;5078738;28;45812;-58
2023/04/05 11:11:16;;;;;;;;;3.25;3.00;;;;;21.64;31.89;101682.38;5079205;28;45503;-58
2023/04/05 11:13:48;;;;;;;;;4.25;4.25;;;;;21.63;31.46;101678.84;5078970;28;45347;-58
2023/04/05 11:16:13;;;;;;;;;6.75;4.25;;;;;21.66;31.41;101680.50;5078882;28;46233;-58
2023/04/05 11:18:45;;;;;;;;;3.50;3.50;;;;;21.66;31.28;101676.06;5061216;28;50350;-57
2023/04/05 11:21:10;;;;;;;;;3.50;3.50;;;;;21.66;31.37;101670.81;5079044;28;45286;-58
2023/04/05 11:24:02;;;;;;;;;3.00;3.00;;;;;21.68;31.17;101676.88;5079559;28;45531;-58
2023/04/05 11:26:38;;;;;;;;;4.75;3.75;;;;;21.68;31.18;101671.59;5089485;28;46242;-56